Airfield :
LOGIN :

Register | Disclaimer

   EN    FR    IT 

 










Legend :    VFR   Marginal VFR   IFR   Intensive IFR   Very Intensive IFR
Visi :
Ceiling :
>= 8 km
>= 3000ft
5 to 8 km
1000 to 3000 ft
1500m to 5 km
500 to 1000 ft
800 to 1500m
200 to 500 ft
< 800m
< 200 ft
Symbols :   Thunderstorms  Fog  Heavy snow  Heavy precipitations  Wind > 20 kt
SIGMETs :     Misc.  Thunderstorms  Icing  Turbulence  Mountain Waves  Volcanic Ashes







- Airport Elevation : 10 ft
- IATA code : AAL


EKYT - Aalborg

CURRENT METAR :
  • 191520Z AUTO 27020G31KT 9999 FEW021/// SCT075/// 06/04 Q1003

EXPIRED METARs :
  • 191450Z AUTO 28018G28KT 250V310 7000 -SHRA FEW018/// SCT022/// BKN027/// BKN034/// 06/04 Q1003
  • 191448Z AUTO 28019G32KT 7000 -SHRA FEW018/// SCT022/// BKN027/// BKN034/// 06/04 Q1003
  • 191436Z AUTO 27021G35KT 9999 -SHRA FEW019/// BKN024/// BKN031/// 07/04 Q1003
  • 191420Z AUTO 27019KT 9999 -SHRA FEW017/// SCT026/// BKN030/// 07/05 Q1003
  • 191350Z AUTO 27019KT 7000 -RA FEW019/// SCT024/// BKN032/// BKN038/// 07/05 Q1003
  • 191320Z AUTO 27018KT 9999 FEW020/// SCT027/// BKN032/// BKN039/// 07/05 Q1003
  • 191250Z AUTO 26018KT 9999 FEW018/// SCT022/// BKN026/// OVC035/// 07/05 Q1003
  • 191220Z AUTO 27016KT 9999 RA FEW018/// SCT022/// BKN028/// BKN039/// 06/04 Q1003

TAF TAF EKYT
Valid from the 19 at 15:00 until the 20 at 12:00 UTC


191422Z 1915/2012 27015KT 9999 SCT030
TEMPO 1915/1918 27020G30KT 6000 -SHRA BKN012 SCT020CB
TEMPO 1918/1924 28020G30KT
No reported NOTAMs for that airfield.



MET'MAP, your aeronautical weather chart ! - Copyright ORBIFLY December 2007 - Disclaimer

ORBIFLY MET'MAP TEAM :

Programming & Development : Alexandra Zaïnal
Concept & Development : Baudouin d'Aumeries
Co-Development & Prog : Marc-Olivier Méhu
Technical & hardware support : Manuel Goepfert

Contact : metmap@orbifly.com




SOURCES & CREDITS :

   NOAA